Preview an experimental upcoming version of this site at Beta.AviationWeather.gov

Impacts TAF Board
For situational awareness. Not to be used for flight planning purposes.
IDs:

KPDX - Portland Intl Arpt, OR, US

Issued at 1144 UTC 26 Sep 2023
Updated at 1158 UTC 26 Sep 2023
Potential Impact None Slight Moderate High
Time1153Z 26/12Z 26/13Z 26/14Z 26/15Z 26/16Z 26/17Z 26/18Z 26/19Z 26/20Z 26/21Z 26/22Z 26/23Z 27/00Z>>
Type OBS PRVL PRVL PRVL PRVL PRVL PRVL PRVL PRVL PRVL PRVL PRVL PRVL PRVL
VIS 10 >6 >6 >6 >6 >6 >6 >6 >6 >6 >6 >6 >6 >6
CIG 65 110 110 110 110 110 40 40 40 40 40 40 40 40
Cover OVC BKN BKN BKN BKN BKN BKN BKN BKN BKN BKN BKN BKN BKN
FltCat VFR VFR VFR VFR VFR VFR VFR VFR VFR VFR VFR VFR VFR VFR
WX -RA -SHRA -SHRA -SHRA -SHRA -SHRA -SHRA -SHRA -SHRA -SHRA -SHRA -SHRA -SHRA -SHRA
WDir 120 130 130 130 130 130 170 170 170 170 170 170 170 170
WSpd 7 5 5 5 5 5 14 14 14 14 14 14 14 14
WGst -- -- -- -- -- -- 21 21 21 21 21 21 21 21
WSHgt -- -- -- -- -- -- -- -- -- -- -- -- -- --
WSDir -- -- -- -- -- -- -- -- -- -- -- -- -- --
WSSpd -- -- -- -- -- -- -- -- -- -- -- -- -- --

NOTE: LAMP data beyond the time of the TAF data is denoted as LAMP in Type and colored magenta.

Raw TAF
KPDX 261144Z 2612/2712 13005KT P6SM -SHRA FEW010 SCT022 BKN110
  FM261700 17014G21KT P6SM -SHRA BKN040 BKN060
  FM270100 15008KT P6SM -SHRA OVC060
  FM270900 14015KT P6SM -RA OVC060


Raw METAR
KPDX 261153Z 12007KT 10SM -RA BKN065 BKN080 OVC090 14/12 A2996 RMK AO2 RAB28 SLP143 P0000 60010 70039 T01440122 10156 20133 51010
KPDX 261053Z 13005KT 10SM FEW010 SCT022 BKN110 14/12 A2995 RMK AO2 SLP140 T01390117
KPDX 260953Z 13007KT 10SM FEW010 SCT035 BKN100 14/12 A2994 RMK AO2 SLP136 T01390117
KPDX 260853Z 13006KT 10SM SCT038 BKN100 14/12 A2993 RMK AO2 RAE02B29E40 SLP133 P0000 60010 T01440122 51006

METAR Board
Radar Display
Forecast Discussion

For situational awareness. Not to be used for flight planning purposes.